sensor_id;sensor_type;location;lat;lon;timestamp;P1;durP1;ratioP1;P2;durP2;ratioP2
16839;SDS011;8536;52.150;11.572;2023-03-05T00:00:46;2.93;;;0.90;;
16839;SDS011;8536;52.150;11.572;2023-03-05T00:03:13;4.20;;;0.90;;
16839;SDS011;8536;52.150;11.572;2023-03-05T00:05:39;3.77;;;0.93;;
16839;SDS011;8536;52.150;11.572;2023-03-05T00:08:06;3.00;;;0.90;;
16839;SDS011;8536;52.150;11.572;2023-03-05T00:10:32;2.73;;;0.80;;
16839;SDS011;8536;52.150;11.572;2023-03-05T00:12:58;3.90;;;0.70;;
16839;SDS011;8536;52.150;11.572;2023-03-05T00:15:25;4.67;;;0.90;;
16839;SDS011;8536;52.150;11.572;2023-03-05T00:17:51;5.10;;;1.30;;
16839;SDS011;8536;52.150;11.572;2023-03-05T00:20:18;1.47;;;0.70;;
16839;SDS011;8536;52.150;11.572;2023-03-05T00:22:44;5.43;;;0.70;;
16839;SDS011;8536;52.150;11.572;2023-03-05T00:25:11;2.67;;;0.80;;
16839;SDS011;8536;52.150;11.572;2023-03-05T00:27:38;4.40;;;0.80;;
16839;SDS011;8536;52.150;11.572;2023-03-05T00:30:04;2.03;;;0.70;;
16839;SDS011;8536;52.150;11.572;2023-03-05T00:32:31;4.77;;;0.97;;
16839;SDS011;8536;52.150;11.572;2023-03-05T00:34:58;3.17;;;1.07;;
16839;SDS011;8536;52.150;11.572;2023-03-05T00:37:24;4.73;;;0.90;;
16839;SDS011;8536;52.150;11.572;2023-03-05T00:39:50;2.13;;;0.80;;
16839;SDS011;8536;52.150;11.572;2023-03-05T00:42:17;2.07;;;0.70;;
16839;SDS011;8536;52.150;11.572;2023-03-05T00:44:43;5.60;;;0.97;;
16839;SDS011;8536;52.150;11.572;2023-03-05T00:47:10;4.63;;;0.90;;
16839;SDS011;8536;52.150;11.572;2023-03-05T00:49:37;2.50;;;0.70;;
16839;SDS011;8536;52.150;11.572;2023-03-05T00:52:04;2.23;;;0.90;;
16839;SDS011;8536;52.150;11.572;2023-03-05T00:54:30;4.33;;;0.97;;
16839;SDS011;8536;52.150;11.572;2023-03-05T00:56:57;2.90;;;0.70;;
16839;SDS011;8536;52.150;11.572;2023-03-05T00:59:23;5.67;;;0.97;;
16839;SDS011;8536;52.150;11.572;2023-03-05T01:01:49;4.67;;;0.93;;
16839;SDS011;8536;52.150;11.572;2023-03-05T01:04:16;1.80;;;0.70;;
16839;SDS011;8536;52.150;11.572;2023-03-05T01:06:42;3.67;;;0.70;;
16839;SDS011;8536;52.150;11.572;2023-03-05T01:09:11;4.23;;;1.20;;
16839;SDS011;8536;52.150;11.572;2023-03-05T01:11:37;3.60;;;0.97;;
16839;SDS011;8536;52.150;11.572;2023-03-05T01:14:04;3.00;;;1.10;;
16839;SDS011;8536;52.150;11.572;2023-03-05T01:16:31;6.33;;;1.10;;
16839;SDS011;8536;52.150;11.572;2023-03-05T01:18:57;5.13;;;1.20;;
16839;SDS011;8536;52.150;11.572;2023-03-05T01:21:24;3.83;;;1.20;;
16839;SDS011;8536;52.150;11.572;2023-03-05T01:23:50;8.30;;;1.50;;
16839;SDS011;8536;52.150;11.572;2023-03-05T01:26:17;3.93;;;1.27;;
16839;SDS011;8536;52.150;11.572;2023-03-05T01:28:43;2.33;;;1.20;;
16839;SDS011;8536;52.150;11.572;2023-03-05T01:31:10;3.47;;;0.90;;
16839;SDS011;8536;52.150;11.572;2023-03-05T01:33:37;4.90;;;1.47;;
16839;SDS011;8536;52.150;11.572;2023-03-05T01:36:10;5.67;;;1.33;;
16839;SDS011;8536;52.150;11.572;2023-03-05T01:38:40;3.83;;;1.40;;
16839;SDS011;8536;52.150;11.572;2023-03-05T01:41:08;6.23;;;1.40;;
16839;SDS011;8536;52.150;11.572;2023-03-05T01:43:35;5.17;;;1.47;;
16839;SDS011;8536;52.150;11.572;2023-03-05T01:54:27;7.37;;;2.20;;
16839;SDS011;8536;52.150;11.572;2023-03-05T01:56:57;5.47;;;1.90;;
16839;SDS011;8536;52.150;11.572;2023-03-05T01:59:24;4.50;;;1.83;;
16839;SDS011;8536;52.150;11.572;2023-03-05T02:01:53;4.87;;;2.07;;
16839;SDS011;8536;52.150;11.572;2023-03-05T02:04:22;8.33;;;2.27;;
16839;SDS011;8536;52.150;11.572;2023-03-05T02:06:49;7.50;;;2.10;;
16839;SDS011;8536;52.150;11.572;2023-03-05T02:09:15;4.73;;;2.40;;
16839;SDS011;8536;52.150;11.572;2023-03-05T02:11:42;6.30;;;2.67;;
16839;SDS011;8536;52.150;11.572;2023-03-05T02:14:09;6.23;;;2.60;;
16839;SDS011;8536;52.150;11.572;2023-03-05T02:16:35;7.47;;;2.30;;
16839;SDS011;8536;52.150;11.572;2023-03-05T02:19:04;6.13;;;2.53;;
16839;SDS011;8536;52.150;11.572;2023-03-05T02:21:39;5.87;;;2.63;;
16839;SDS011;8536;52.150;11.572;2023-03-05T02:24:14;5.07;;;2.70;;
16839;SDS011;8536;52.150;11.572;2023-03-05T02:26:43;6.00;;;2.23;;
16839;SDS011;8536;52.150;11.572;2023-03-05T02:29:11;7.07;;;2.80;;
16839;SDS011;8536;52.150;11.572;2023-03-05T02:31:40;4.63;;;2.60;;
16839;SDS011;8536;52.150;11.572;2023-03-05T02:34:07;6.80;;;3.10;;
16839;SDS011;8536;52.150;11.572;2023-03-05T02:36:33;6.80;;;2.70;;
16839;SDS011;8536;52.150;11.572;2023-03-05T02:39:00;6.43;;;2.23;;
16839;SDS011;8536;52.150;11.572;2023-03-05T02:41:26;6.57;;;2.30;;
16839;SDS011;8536;52.150;11.572;2023-03-05T02:43:53;8.10;;;2.40;;
16839;SDS011;8536;52.150;11.572;2023-03-05T02:46:19;5.77;;;2.27;;
16839;SDS011;8536;52.150;11.572;2023-03-05T02:48:46;3.90;;;2.10;;
16839;SDS011;8536;52.150;11.572;2023-03-05T02:51:12;6.33;;;2.00;;
16839;SDS011;8536;52.150;11.572;2023-03-05T02:53:39;4.60;;;2.47;;
16839;SDS011;8536;52.150;11.572;2023-03-05T02:56:05;10.33;;;2.50;;
16839;SDS011;8536;52.150;11.572;2023-03-05T02:58:32;4.10;;;2.10;;
16839;SDS011;8536;52.150;11.572;2023-03-05T03:00:59;4.70;;;2.17;;
16839;SDS011;8536;52.150;11.572;2023-03-05T03:03:25;5.17;;;2.30;;
16839;SDS011;8536;52.150;11.572;2023-03-05T03:05:52;4.43;;;2.57;;
16839;SDS011;8536;52.150;11.572;2023-03-05T03:08:18;4.03;;;2.27;;
16839;SDS011;8536;52.150;11.572;2023-03-05T03:10:45;6.73;;;2.47;;
16839;SDS011;8536;52.150;11.572;2023-03-05T03:13:11;5.37;;;2.10;;
16839;SDS011;8536;52.150;11.572;2023-03-05T03:15:37;3.63;;;2.03;;
16839;SDS011;8536;52.150;11.572;2023-03-05T03:18:05;3.40;;;1.90;;
16839;SDS011;8536;52.150;11.572;2023-03-05T03:20:31;4.63;;;1.60;;
16839;SDS011;8536;52.150;11.572;2023-03-05T03:22:59;4.50;;;1.93;;
16839;SDS011;8536;52.150;11.572;2023-03-05T03:25:27;8.83;;;2.10;;
16839;SDS011;8536;52.150;11.572;2023-03-05T03:27:53;3.57;;;2.00;;
16839;SDS011;8536;52.150;11.572;2023-03-05T03:30:20;4.07;;;2.30;;
16839;SDS011;8536;52.150;11.572;2023-03-05T03:32:46;5.73;;;2.00;;
16839;SDS011;8536;52.150;11.572;2023-03-05T03:35:12;6.67;;;2.57;;
16839;SDS011;8536;52.150;11.572;2023-03-05T03:37:39;5.13;;;2.43;;
16839;SDS011;8536;52.150;11.572;2023-03-05T03:40:06;5.83;;;2.40;;
16839;SDS011;8536;52.150;11.572;2023-03-05T03:42:33;7.63;;;2.77;;
16839;SDS011;8536;52.150;11.572;2023-03-05T03:44:59;5.90;;;2.90;;
16839;SDS011;8536;52.150;11.572;2023-03-05T03:47:27;7.33;;;2.60;;
16839;SDS011;8536;52.150;11.572;2023-03-05T03:49:54;7.23;;;2.77;;
16839;SDS011;8536;52.150;11.572;2023-03-05T03:52:21;5.53;;;3.00;;
16839;SDS011;8536;52.150;11.572;2023-03-05T03:54:48;9.10;;;3.13;;
16839;SDS011;8536;52.150;11.572;2023-03-05T03:57:17;7.77;;;3.70;;
16839;SDS011;8536;52.150;11.572;2023-03-05T03:59:44;5.80;;;3.40;;
16839;SDS011;8536;52.150;11.572;2023-03-05T04:02:11;10.70;;;3.87;;
16839;SDS011;8536;52.150;11.572;2023-03-05T04:04:37;5.57;;;3.40;;
16839;SDS011;8536;52.150;11.572;2023-03-05T04:07:04;7.97;;;4.00;;
16839;SDS011;8536;52.150;11.572;2023-03-05T04:09:30;12.57;;;4.30;;
16839;SDS011;8536;52.150;11.572;2023-03-05T04:11:56;5.73;;;3.50;;
16839;SDS011;8536;52.150;11.572;2023-03-05T04:14:23;6.90;;;4.07;;
16839;SDS011;8536;52.150;11.572;2023-03-05T04:16:51;9.37;;;4.10;;
16839;SDS011;8536;52.150;11.572;2023-03-05T04:19:18;8.73;;;3.87;;
16839;SDS011;8536;52.150;11.572;2023-03-05T04:21:45;8.63;;;4.20;;
16839;SDS011;8536;52.150;11.572;2023-03-05T04:24:12;5.53;;;4.07;;
16839;SDS011;8536;52.150;11.572;2023-03-05T04:26:38;8.77;;;4.70;;
16839;SDS011;8536;52.150;11.572;2023-03-05T04:29:05;9.73;;;4.00;;
16839;SDS011;8536;52.150;11.572;2023-03-05T04:31:31;8.77;;;3.57;;
16839;SDS011;8536;52.150;11.572;2023-03-05T04:33:58;7.00;;;3.87;;
16839;SDS011;8536;52.150;11.572;2023-03-05T04:36:24;7.13;;;3.60;;
16839;SDS011;8536;52.150;11.572;2023-03-05T04:38:51;4.17;;;3.50;;
16839;SDS011;8536;52.150;11.572;2023-03-05T04:41:17;7.07;;;4.00;;
16839;SDS011;8536;52.150;11.572;2023-03-05T04:43:44;7.57;;;3.53;;
16839;SDS011;8536;52.150;11.572;2023-03-05T04:46:10;8.67;;;3.63;;
16839;SDS011;8536;52.150;11.572;2023-03-05T04:48:37;6.10;;;3.13;;
16839;SDS011;8536;52.150;11.572;2023-03-05T04:51:03;7.73;;;3.50;;
16839;SDS011;8536;52.150;11.572;2023-03-05T04:53:30;5.97;;;3.83;;
16839;SDS011;8536;52.150;11.572;2023-03-05T04:55:56;10.17;;;3.83;;
16839;SDS011;8536;52.150;11.572;2023-03-05T04:58:26;5.00;;;3.63;;
16839;SDS011;8536;52.150;11.572;2023-03-05T05:00:52;6.33;;;3.40;;
16839;SDS011;8536;52.150;11.572;2023-03-05T05:03:19;6.63;;;3.50;;
16839;SDS011;8536;52.150;11.572;2023-03-05T05:05:52;8.30;;;3.80;;
16839;SDS011;8536;52.150;11.572;2023-03-05T05:08:19;6.80;;;3.50;;
16839;SDS011;8536;52.150;11.572;2023-03-05T05:10:53;9.20;;;4.30;;
16839;SDS011;8536;52.150;11.572;2023-03-05T05:13:30;9.27;;;3.20;;
16839;SDS011;8536;52.150;11.572;2023-03-05T05:15:57;6.47;;;3.07;;
16839;SDS011;8536;52.150;11.572;2023-03-05T05:18:24;4.90;;;3.33;;
16839;SDS011;8536;52.150;11.572;2023-03-05T05:20:51;6.33;;;3.13;;
16839;SDS011;8536;52.150;11.572;2023-03-05T05:23:17;7.20;;;3.10;;
16839;SDS011;8536;52.150;11.572;2023-03-05T05:25:44;5.20;;;2.83;;
16839;SDS011;8536;52.150;11.572;2023-03-05T05:28:11;6.53;;;3.20;;
16839;SDS011;8536;52.150;11.572;2023-03-05T05:30:37;10.77;;;3.30;;
16839;SDS011;8536;52.150;11.572;2023-03-05T05:33:04;7.90;;;3.27;;
16839;SDS011;8536;52.150;11.572;2023-03-05T05:35:30;7.57;;;3.20;;
16839;SDS011;8536;52.150;11.572;2023-03-05T05:37:57;5.30;;;3.03;;
16839;SDS011;8536;52.150;11.572;2023-03-05T05:40:23;6.13;;;2.90;;
16839;SDS011;8536;52.150;11.572;2023-03-05T05:42:50;6.73;;;3.03;;
16839;SDS011;8536;52.150;11.572;2023-03-05T05:45:16;5.10;;;2.67;;
16839;SDS011;8536;52.150;11.572;2023-03-05T05:47:43;6.83;;;3.17;;
16839;SDS011;8536;52.150;11.572;2023-03-05T05:50:09;8.90;;;2.67;;
16839;SDS011;8536;52.150;11.572;2023-03-05T05:52:36;8.63;;;2.80;;
16839;SDS011;8536;52.150;11.572;2023-03-05T05:55:03;4.87;;;2.80;;
16839;SDS011;8536;52.150;11.572;2023-03-05T05:57:29;4.63;;;2.30;;
16839;SDS011;8536;52.150;11.572;2023-03-05T05:59:56;6.53;;;2.30;;
16839;SDS011;8536;52.150;11.572;2023-03-05T06:02:22;4.13;;;2.03;;
16839;SDS011;8536;52.150;11.572;2023-03-05T06:04:49;2.83;;;1.80;;
16839;SDS011;8536;52.150;11.572;2023-03-05T06:07:15;1.53;;;1.43;;
16839;SDS011;8536;52.150;11.572;2023-03-05T06:09:42;4.47;;;1.53;;
16839;SDS011;8536;52.150;11.572;2023-03-05T06:12:08;2.33;;;1.70;;
16839;SDS011;8536;52.150;11.572;2023-03-05T06:14:34;3.40;;;1.60;;
16839;SDS011;8536;52.150;11.572;2023-03-05T06:17:01;2.57;;;1.67;;
16839;SDS011;8536;52.150;11.572;2023-03-05T06:19:27;4.60;;;2.27;;
16839;SDS011;8536;52.150;11.572;2023-03-05T06:21:54;4.53;;;2.47;;
16839;SDS011;8536;52.150;11.572;2023-03-05T06:24:20;4.67;;;2.37;;
16839;SDS011;8536;52.150;11.572;2023-03-05T06:26:47;4.27;;;2.13;;
16839;SDS011;8536;52.150;11.572;2023-03-05T06:29:14;6.17;;;2.10;;
16839;SDS011;8536;52.150;11.572;2023-03-05T06:31:41;3.87;;;2.30;;
16839;SDS011;8536;52.150;11.572;2023-03-05T06:34:07;4.87;;;2.40;;
16839;SDS011;8536;52.150;11.572;2023-03-05T06:36:33;3.60;;;2.17;;
16839;SDS011;8536;52.150;11.572;2023-03-05T06:39:00;4.47;;;2.10;;
16839;SDS011;8536;52.150;11.572;2023-03-05T06:41:27;4.77;;;1.97;;
16839;SDS011;8536;52.150;11.572;2023-03-05T06:43:55;6.67;;;2.00;;
16839;SDS011;8536;52.150;11.572;2023-03-05T06:46:26;3.17;;;2.10;;
16839;SDS011;8536;52.150;11.572;2023-03-05T06:48:54;5.27;;;2.17;;
16839;SDS011;8536;52.150;11.572;2023-03-05T06:51:26;5.97;;;2.10;;
16839;SDS011;8536;52.150;11.572;2023-03-05T06:54:01;6.03;;;2.33;;
16839;SDS011;8536;52.150;11.572;2023-03-05T06:56:29;3.87;;;1.80;;
16839;SDS011;8536;52.150;11.572;2023-03-05T06:58:56;4.77;;;2.20;;
16839;SDS011;8536;52.150;11.572;2023-03-05T07:01:23;5.73;;;2.40;;
16839;SDS011;8536;52.150;11.572;2023-03-05T07:03:50;7.60;;;2.50;;
16839;SDS011;8536;52.150;11.572;2023-03-05T07:06:17;4.53;;;2.20;;
16839;SDS011;8536;52.150;11.572;2023-03-05T07:08:44;5.10;;;2.40;;
16839;SDS011;8536;52.150;11.572;2023-03-05T07:11:11;5.17;;;2.10;;
16839;SDS011;8536;52.150;11.572;2023-03-05T07:13:42;4.23;;;2.07;;
16839;SDS011;8536;52.150;11.572;2023-03-05T07:16:10;6.50;;;2.30;;
16839;SDS011;8536;52.150;11.572;2023-03-05T07:18:39;5.20;;;2.10;;
16839;SDS011;8536;52.150;11.572;2023-03-05T07:21:06;3.90;;;2.43;;
16839;SDS011;8536;52.150;11.572;2023-03-05T07:23:34;3.37;;;2.13;;
16839;SDS011;8536;52.150;11.572;2023-03-05T07:26:01;4.70;;;2.10;;
16839;SDS011;8536;52.150;11.572;2023-03-05T07:28:28;4.27;;;2.00;;
16839;SDS011;8536;52.150;11.572;2023-03-05T07:30:59;4.73;;;2.23;;
16839;SDS011;8536;52.150;11.572;2023-03-05T07:33:27;3.77;;;2.17;;
16839;SDS011;8536;52.150;11.572;2023-03-05T07:35:53;3.90;;;2.47;;
16839;SDS011;8536;52.150;11.572;2023-03-05T07:38:20;4.03;;;2.00;;
16839;SDS011;8536;52.150;11.572;2023-03-05T07:40:47;4.80;;;2.50;;
16839;SDS011;8536;52.150;11.572;2023-03-05T07:43:14;3.60;;;2.23;;
16839;SDS011;8536;52.150;11.572;2023-03-05T07:45:41;4.67;;;2.37;;
16839;SDS011;8536;52.150;11.572;2023-03-05T07:48:10;9.43;;;2.60;;
16839;SDS011;8536;52.150;11.572;2023-03-05T07:50:39;7.50;;;2.87;;
16839;SDS011;8536;52.150;11.572;2023-03-05T07:53:05;3.77;;;2.50;;
16839;SDS011;8536;52.150;11.572;2023-03-05T07:55:31;6.80;;;2.53;;
16839;SDS011;8536;52.150;11.572;2023-03-05T07:57:58;4.17;;;2.33;;
16839;SDS011;8536;52.150;11.572;2023-03-05T08:00:24;3.47;;;1.87;;
16839;SDS011;8536;52.150;11.572;2023-03-05T08:02:51;4.73;;;2.20;;
16839;SDS011;8536;52.150;11.572;2023-03-05T08:05:17;3.80;;;2.33;;
16839;SDS011;8536;52.150;11.572;2023-03-05T08:07:44;5.33;;;2.47;;
16839;SDS011;8536;52.150;11.572;2023-03-05T08:10:10;3.73;;;2.40;;
16839;SDS011;8536;52.150;11.572;2023-03-05T08:12:36;2.70;;;1.93;;
16839;SDS011;8536;52.150;11.572;2023-03-05T08:15:03;4.40;;;2.50;;
16839;SDS011;8536;52.150;11.572;2023-03-05T08:17:30;4.47;;;2.40;;
16839;SDS011;8536;52.150;11.572;2023-03-05T08:19:56;4.70;;;2.30;;
16839;SDS011;8536;52.150;11.572;2023-03-05T08:22:25;3.00;;;2.27;;
16839;SDS011;8536;52.150;11.572;2023-03-05T08:24:52;3.13;;;2.70;;
16839;SDS011;8536;52.150;11.572;2023-03-05T08:27:18;3.00;;;2.37;;
16839;SDS011;8536;52.150;11.572;2023-03-05T08:29:45;4.90;;;2.50;;
16839;SDS011;8536;52.150;11.572;2023-03-05T08:32:11;3.47;;;2.50;;
16839;SDS011;8536;52.150;11.572;2023-03-05T08:34:37;3.37;;;2.77;;
16839;SDS011;8536;52.150;11.572;2023-03-05T08:37:04;4.57;;;2.60;;
16839;SDS011;8536;52.150;11.572;2023-03-05T08:39:32;5.50;;;2.70;;
16839;SDS011;8536;52.150;11.572;2023-03-05T08:41:59;3.60;;;2.63;;
16839;SDS011;8536;52.150;11.572;2023-03-05T08:44:25;5.07;;;2.50;;
16839;SDS011;8536;52.150;11.572;2023-03-05T08:46:52;4.10;;;2.50;;
16839;SDS011;8536;52.150;11.572;2023-03-05T08:49:18;5.07;;;2.50;;
16839;SDS011;8536;52.150;11.572;2023-03-05T08:51:45;3.90;;;2.23;;
16839;SDS011;8536;52.150;11.572;2023-03-05T08:54:11;4.67;;;2.50;;
16839;SDS011;8536;52.150;11.572;2023-03-05T08:56:37;7.03;;;2.60;;
16839;SDS011;8536;52.150;11.572;2023-03-05T08:59:04;6.37;;;2.67;;
16839;SDS011;8536;52.150;11.572;2023-03-05T09:01:31;4.30;;;2.50;;
16839;SDS011;8536;52.150;11.572;2023-03-05T09:03:58;3.57;;;2.37;;
16839;SDS011;8536;52.150;11.572;2023-03-05T09:06:25;7.33;;;2.90;;
16839;SDS011;8536;52.150;11.572;2023-03-05T09:08:52;4.33;;;2.70;;
16839;SDS011;8536;52.150;11.572;2023-03-05T09:11:19;2.30;;;1.80;;
16839;SDS011;8536;52.150;11.572;2023-03-05T09:13:45;5.17;;;2.40;;
16839;SDS011;8536;52.150;11.572;2023-03-05T09:16:13;4.63;;;2.13;;
16839;SDS011;8536;52.150;11.572;2023-03-05T09:18:41;4.77;;;2.63;;
16839;SDS011;8536;52.150;11.572;2023-03-05T09:21:10;4.50;;;2.60;;
16839;SDS011;8536;52.150;11.572;2023-03-05T09:23:38;4.63;;;2.17;;
16839;SDS011;8536;52.150;11.572;2023-03-05T09:26:06;4.83;;;2.53;;
16839;SDS011;8536;52.150;11.572;2023-03-05T09:28:33;3.30;;;2.17;;
16839;SDS011;8536;52.150;11.572;2023-03-05T09:31:01;5.00;;;2.17;;
16839;SDS011;8536;52.150;11.572;2023-03-05T09:33:29;5.50;;;2.23;;
16839;SDS011;8536;52.150;11.572;2023-03-05T09:35:57;2.57;;;1.50;;
16839;SDS011;8536;52.150;11.572;2023-03-05T09:38:24;2.17;;;1.57;;
16839;SDS011;8536;52.150;11.572;2023-03-05T09:46:41;1.80;;;1.50;;
16839;SDS011;8536;52.150;11.572;2023-03-05T09:49:32;1.67;;;1.03;;
16839;SDS011;8536;52.150;11.572;2023-03-05T09:52:17;3.63;;;1.23;;
16839;SDS011;8536;52.150;11.572;2023-03-05T09:54:53;3.37;;;1.17;;
16839;SDS011;8536;52.150;11.572;2023-03-05T10:00:26;2.33;;;0.90;;
16839;SDS011;8536;52.150;11.572;2023-03-05T10:02:59;3.53;;;1.10;;
16839;SDS011;8536;52.150;11.572;2023-03-05T10:08:30;1.10;;;0.93;;
16839;SDS011;8536;52.150;11.572;2023-03-05T10:11:16;1.30;;;1.00;;
16839;SDS011;8536;52.150;11.572;2023-03-05T10:13:47;1.93;;;1.37;;
16839;SDS011;8536;52.150;11.572;2023-03-05T10:16:51;2.13;;;1.67;;
16839;SDS011;8536;52.150;11.572;2023-03-05T10:22:18;4.13;;;1.77;;
16839;SDS011;8536;52.150;11.572;2023-03-05T10:24:50;2.20;;;1.90;;
16839;SDS011;8536;52.150;11.572;2023-03-05T10:27:33;3.73;;;2.13;;
16839;SDS011;8536;52.150;11.572;2023-03-05T10:32:49;3.07;;;1.50;;
16839;SDS011;8536;52.150;11.572;2023-03-05T10:35:38;3.00;;;1.83;;
16839;SDS011;8536;52.150;11.572;2023-03-05T10:38:44;2.13;;;1.20;;
16839;SDS011;8536;52.150;11.572;2023-03-05T10:41:27;1.90;;;1.10;;
16839;SDS011;8536;52.150;11.572;2023-03-05T10:44:08;1.20;;;0.90;;
16839;SDS011;8536;52.150;11.572;2023-03-05T10:46:40;1.07;;;0.87;;
16839;SDS011;8536;52.150;11.572;2023-03-05T10:51:58;3.27;;;1.07;;
16839;SDS011;8536;52.150;11.572;2023-03-05T10:54:34;3.87;;;1.10;;
16839;SDS011;8536;52.150;11.572;2023-03-05T11:02:14;2.03;;;1.07;;
16839;SDS011;8536;52.150;11.572;2023-03-05T11:04:41;1.10;;;1.00;;
16839;SDS011;8536;52.150;11.572;2023-03-05T11:09:41;1.50;;;1.33;;
16839;SDS011;8536;52.150;11.572;2023-03-05T11:15:01;2.10;;;1.30;;
16839;SDS011;8536;52.150;11.572;2023-03-05T11:17:35;3.23;;;1.60;;
16839;SDS011;8536;52.150;11.572;2023-03-05T11:25:49;4.30;;;1.70;;
16839;SDS011;8536;52.150;11.572;2023-03-05T11:28:19;2.90;;;2.13;;
16839;SDS011;8536;52.150;11.572;2023-03-05T11:33:53;5.50;;;2.53;;
16839;SDS011;8536;52.150;11.572;2023-03-05T11:39:07;3.10;;;2.00;;
16839;SDS011;8536;52.150;11.572;2023-03-05T11:44:40;2.33;;;1.83;;
16839;SDS011;8536;52.150;11.572;2023-03-05T11:52:41;1.70;;;1.60;;
16839;SDS011;8536;52.150;11.572;2023-03-05T11:55:12;3.57;;;1.53;;
16839;SDS011;8536;52.150;11.572;2023-03-05T11:57:46;1.93;;;1.70;;
16839;SDS011;8536;52.150;11.572;2023-03-05T12:00:33;3.37;;;1.90;;
16839;SDS011;8536;52.150;11.572;2023-03-05T12:03:04;2.43;;;2.23;;
16839;SDS011;8536;52.150;11.572;2023-03-05T12:05:35;3.37;;;1.50;;
16839;SDS011;8536;52.150;11.572;2023-03-05T12:08:03;1.60;;;1.40;;
16839;SDS011;8536;52.150;11.572;2023-03-05T12:10:30;1.40;;;1.30;;
16839;SDS011;8536;52.150;11.572;2023-03-05T12:13:04;2.30;;;1.43;;
16839;SDS011;8536;52.150;11.572;2023-03-05T12:15:37;1.80;;;1.70;;
16839;SDS011;8536;52.150;11.572;2023-03-05T12:18:25;1.40;;;1.30;;
16839;SDS011;8536;52.150;11.572;2023-03-05T12:23:44;2.10;;;1.30;;
16839;SDS011;8536;52.150;11.572;2023-03-05T12:26:13;2.20;;;1.43;;
16839;SDS011;8536;52.150;11.572;2023-03-05T12:33:36;2.77;;;1.23;;
16839;SDS011;8536;52.150;11.572;2023-03-05T12:38:43;1.93;;;1.47;;
16839;SDS011;8536;52.150;11.572;2023-03-05T12:46:30;4.30;;;1.20;;
16839;SDS011;8536;52.150;11.572;2023-03-05T12:48:58;2.10;;;1.20;;
16839;SDS011;8536;52.150;11.572;2023-03-05T12:51:29;2.20;;;0.90;;
16839;SDS011;8536;52.150;11.572;2023-03-05T12:54:23;3.83;;;1.47;;
16839;SDS011;8536;52.150;11.572;2023-03-05T12:56:58;1.47;;;0.90;;
16839;SDS011;8536;52.150;11.572;2023-03-05T13:02:41;2.97;;;0.50;;
16839;SDS011;8536;52.150;11.572;2023-03-05T13:05:16;2.23;;;0.50;;
16839;SDS011;8536;52.150;11.572;2023-03-05T13:07:47;1.00;;;0.60;;
16839;SDS011;8536;52.150;11.572;2023-03-05T13:10:21;0.73;;;0.50;;
16839;SDS011;8536;52.150;11.572;2023-03-05T13:12:54;1.00;;;0.43;;
16839;SDS011;8536;52.150;11.572;2023-03-05T13:15:23;1.93;;;0.63;;
16839;SDS011;8536;52.150;11.572;2023-03-05T13:17:55;3.03;;;0.80;;
16839;SDS011;8536;52.150;11.572;2023-03-05T13:20:24;0.80;;;0.60;;
16839;SDS011;8536;52.150;11.572;2023-03-05T13:23:04;2.47;;;0.80;;
16839;SDS011;8536;52.150;11.572;2023-03-05T13:28:40;1.50;;;0.77;;
16839;SDS011;8536;52.150;11.572;2023-03-05T13:31:14;1.47;;;0.90;;
16839;SDS011;8536;52.150;11.572;2023-03-05T13:33:51;0.70;;;0.70;;
16839;SDS011;8536;52.150;11.572;2023-03-05T13:36:20;0.90;;;0.80;;
16839;SDS011;8536;52.150;11.572;2023-03-05T13:38:47;1.37;;;0.90;;
16839;SDS011;8536;52.150;11.572;2023-03-05T13:43:47;1.57;;;1.00;;
16839;SDS011;8536;52.150;11.572;2023-03-05T13:46:49;2.50;;;1.43;;
16839;SDS011;8536;52.150;11.572;2023-03-05T13:49:15;3.37;;;1.50;;
16839;SDS011;8536;52.150;11.572;2023-03-05T13:51:50;1.97;;;1.30;;
16839;SDS011;8536;52.150;11.572;2023-03-05T13:54:18;2.10;;;1.43;;
16839;SDS011;8536;52.150;11.572;2023-03-05T13:56:50;1.40;;;1.10;;
16839;SDS011;8536;52.150;11.572;2023-03-05T13:59:25;1.93;;;1.27;;
16839;SDS011;8536;52.150;11.572;2023-03-05T14:01:54;1.97;;;1.37;;
16839;SDS011;8536;52.150;11.572;2023-03-05T14:04:23;3.40;;;1.57;;
16839;SDS011;8536;52.150;11.572;2023-03-05T14:07:00;1.30;;;1.03;;
16839;SDS011;8536;52.150;11.572;2023-03-05T14:12:05;1.70;;;1.37;;
16839;SDS011;8536;52.150;11.572;2023-03-05T14:14:40;1.57;;;1.10;;
16839;SDS011;8536;52.150;11.572;2023-03-05T14:19:49;2.43;;;1.13;;
16839;SDS011;8536;52.150;11.572;2023-03-05T14:22:29;1.87;;;1.00;;
16839;SDS011;8536;52.150;11.572;2023-03-05T14:24:58;1.10;;;1.03;;
16839;SDS011;8536;52.150;11.572;2023-03-05T14:27:24;1.90;;;1.00;;
16839;SDS011;8536;52.150;11.572;2023-03-05T14:29:51;1.07;;;0.90;;
16839;SDS011;8536;52.150;11.572;2023-03-05T14:32:18;1.73;;;1.13;;
16839;SDS011;8536;52.150;11.572;2023-03-05T14:34:54;2.43;;;1.20;;
16839;SDS011;8536;52.150;11.572;2023-03-05T14:37:24;1.50;;;1.10;;
16839;SDS011;8536;52.150;11.572;2023-03-05T14:40:17;2.17;;;1.10;;
16839;SDS011;8536;52.150;11.572;2023-03-05T14:42:52;1.77;;;0.90;;
16839;SDS011;8536;52.150;11.572;2023-03-05T14:45:23;3.37;;;1.20;;
16839;SDS011;8536;52.150;11.572;2023-03-05T14:47:50;2.73;;;1.07;;
16839;SDS011;8536;52.150;11.572;2023-03-05T14:50:19;1.60;;;1.10;;
16839;SDS011;8536;52.150;11.572;2023-03-05T14:52:56;1.57;;;0.70;;
16839;SDS011;8536;52.150;11.572;2023-03-05T14:55:25;2.53;;;1.03;;
16839;SDS011;8536;52.150;11.572;2023-03-05T14:58:03;1.13;;;0.73;;
16839;SDS011;8536;52.150;11.572;2023-03-05T15:00:35;2.87;;;1.10;;
16839;SDS011;8536;52.150;11.572;2023-03-05T15:03:02;1.80;;;0.80;;
16839;SDS011;8536;52.150;11.572;2023-03-05T15:05:29;2.17;;;1.37;;
16839;SDS011;8536;52.150;11.572;2023-03-05T15:07:55;2.70;;;1.43;;
16839;SDS011;8536;52.150;11.572;2023-03-05T15:10:22;2.70;;;1.30;;
16839;SDS011;8536;52.150;11.572;2023-03-05T15:12:50;4.17;;;2.40;;
16839;SDS011;8536;52.150;11.572;2023-03-05T15:15:18;6.20;;;2.50;;
16839;SDS011;8536;52.150;11.572;2023-03-05T15:17:46;3.93;;;1.60;;
16839;SDS011;8536;52.150;11.572;2023-03-05T15:20:25;3.20;;;1.80;;
16839;SDS011;8536;52.150;11.572;2023-03-05T15:22:52;2.03;;;1.87;;
16839;SDS011;8536;52.150;11.572;2023-03-05T15:25:19;2.43;;;1.70;;
16839;SDS011;8536;52.150;11.572;2023-03-05T15:27:47;2.60;;;2.20;;
16839;SDS011;8536;52.150;11.572;2023-03-05T15:30:20;1.50;;;1.40;;
16839;SDS011;8536;52.150;11.572;2023-03-05T15:32:48;2.90;;;2.13;;
16839;SDS011;8536;52.150;11.572;2023-03-05T15:35:16;3.73;;;1.70;;
16839;SDS011;8536;52.150;11.572;2023-03-05T15:37:42;2.37;;;1.80;;
16839;SDS011;8536;52.150;11.572;2023-03-05T15:40:09;5.17;;;2.33;;
16839;SDS011;8536;52.150;11.572;2023-03-05T15:42:35;2.90;;;2.37;;
16839;SDS011;8536;52.150;11.572;2023-03-05T15:45:02;3.10;;;2.47;;
16839;SDS011;8536;52.150;11.572;2023-03-05T15:47:29;3.30;;;2.17;;
16839;SDS011;8536;52.150;11.572;2023-03-05T15:49:58;3.73;;;2.07;;
16839;SDS011;8536;52.150;11.572;2023-03-05T15:52:25;3.97;;;2.50;;
16839;SDS011;8536;52.150;11.572;2023-03-05T15:54:51;3.00;;;2.10;;
16839;SDS011;8536;52.150;11.572;2023-03-05T15:57:18;3.77;;;2.93;;
16839;SDS011;8536;52.150;11.572;2023-03-05T15:59:47;4.77;;;3.40;;
16839;SDS011;8536;52.150;11.572;2023-03-05T16:02:13;5.17;;;2.93;;
16839;SDS011;8536;52.150;11.572;2023-03-05T16:04:40;4.07;;;2.50;;
16839;SDS011;8536;52.150;11.572;2023-03-05T16:07:06;6.00;;;2.70;;
16839;SDS011;8536;52.150;11.572;2023-03-05T16:09:35;5.70;;;2.47;;
16839;SDS011;8536;52.150;11.572;2023-03-05T16:12:03;4.80;;;2.33;;
16839;SDS011;8536;52.150;11.572;2023-03-05T16:14:32;3.83;;;1.70;;
16839;SDS011;8536;52.150;11.572;2023-03-05T16:16:59;3.47;;;1.73;;
16839;SDS011;8536;52.150;11.572;2023-03-05T16:19:26;3.20;;;1.60;;
16839;SDS011;8536;52.150;11.572;2023-03-05T16:21:52;2.63;;;1.83;;
16839;SDS011;8536;52.150;11.572;2023-03-05T16:24:19;2.70;;;2.20;;
16839;SDS011;8536;52.150;11.572;2023-03-05T16:26:45;6.87;;;5.17;;